Time;durP1;ratioP1;P1;durP2;ratioP2;P2;SDS_P1;SDS_P2;PMS_P1;PMS_P2;Temp;Humidity;BMP_temperature;BMP_pressure;BME280_temperature;BME280_humidity;BME280_pressure;Samples;Min_cycle;Max_cycle;Signal;HPM_P1;HPM_P2
2021/03/13 11:34:15;;;;;;;;;;;;;;;;;;1594742;27;83584;-83
2021/03/13 11:35:00;;;;;;;;;;;;;;;;;;1593560;27;83635;-83
2021/03/13 11:35:45;;;;;;;;;;;;;;;;;;1586764;27;85035;-84
2021/03/13 11:36:30;;;;;;;;;;;;;;;;;;1587041;27;85892;-79
2021/03/13 11:37:15;;;;;;;;;;;;;;;;;;1580836;27;83597;-78
2021/03/13 11:38:01;;;;;;;;;;;;;;;;;;1587330;27;83558;-85
2021/03/13 11:38:46;;;;;;;;;;;;;;;;;;1586369;27;85350;-82
2021/03/13 11:39:31;;;;;;;;;;;;;;;;;;1580719;27;83663;-79
2021/03/13 11:40:16;;;;;;;;;;;;;;;;;;1565036;27;86472;-83
2021/03/13 11:41:04;;;;;;;;;;;;;;;;;;1593521;27;82632;-88
2021/03/13 11:41:49;;;;;;;;;;;;;;;;;;1584007;27;84367;-88
2021/03/13 11:42:34;;;;;;;;;;;;;;;;;;1573088;27;85301;-88
2021/03/13 11:43:19;;;;;;;;;;;;;;;;;;1469970;27;2145160;-88
2021/03/13 11:44:04;;;;;;;;;;;;;;;;;;1547242;28;83714;-89
2021/03/13 11:44:49;;;;;;;;;;;;;;;;;;1548260;28;84671;-89
2021/03/13 11:45:35;;;;;;;;;;;;;;;;;;1550643;28;85020;-89
2021/03/13 11:46:20;;;;;;;;;;;;;;;;;;1547154;28;83789;-88
2021/03/13 11:47:05;;;;;;;;;;;;;;;;;;1560535;28;84216;-88
2021/03/13 11:47:52;;;;;;;;;;;;;;;;;;1555157;28;85065;-87
2021/03/13 11:48:37;;;;;;;;;;;;;;;;;;1551771;28;85350;-88
2021/03/13 11:49:22;;;;;;;;;;;;;;;;;;1558746;28;86108;-89
2021/03/13 11:50:08;;;;;;;;;;;;;;;;;;1557141;28;85021;-90
2021/03/13 11:50:53;;;;;;;;;;;;;;;;;;1552902;28;85986;-88
2021/03/13 11:51:38;;;;;;;;;;;;;;;;;;1554163;28;86389;-88
2021/03/13 11:52:23;;;;;;;;;;;;;;;;;;1557735;28;84449;-87
2021/03/13 11:53:08;;;;;;;;;;;;;;;;;;1557275;28;84679;-88
2021/03/13 11:53:53;;;;;;;;;;;;;;;;;;1557572;28;86075;-86
2021/03/13 11:54:38;;;;;;;;;;;;;;;;;;1558703;28;83528;-86
2021/03/13 11:55:24;;;;;;;;;;;;;;;;;;1564394;27;84690;-86
2021/03/13 11:56:09;;;;;;;;;;;;;;;;;;1562014;28;84012;-87
2021/03/13 11:56:54;;;;;;;;;;;;;;;;;;1552094;28;84041;-84
2021/03/13 11:57:39;;;;;;;;;;;;;;;;;;1552404;28;83025;-88
2021/03/13 11:58:24;;;;;;;;;;;;;;;;;;1562057;28;85778;-87
2021/03/13 11:59:09;;;;;;;;;;;;;;;;;;1562085;28;86189;-88
2021/03/13 11:59:55;;;;;;;;;;;;;;;;;;1562120;28;83860;-89
2021/03/13 12:00:40;;;;;;;;;;;;;;;;;;1561850;28;85173;-89
2021/03/13 12:01:25;;;;;;;;;;;;;;;;;;1558707;28;85071;-89
2021/03/13 12:02:10;;;;;;;;;;;;;;;;;;1555968;28;86265;-88
2021/03/13 12:02:55;;;;;;;;;;;;;;;;;;1555943;28;85135;-89
2021/03/13 12:03:40;;;;;;;;;;;;;;;;;;1555808;28;85145;-88
2021/03/13 12:04:25;;;;;;;;;;;;;;;;;;1556146;28;84394;-88
2021/03/13 12:05:11;;;;;;;;;;;;;;;;;;1556171;28;85334;-89
2021/03/13 12:05:56;;;;;;;;;;;;;;;;;;1556057;28;85243;-87
2021/03/13 12:06:41;;;;;;;;;;;;;;;;;;1556034;28;84537;-86
2021/03/13 12:07:26;;;;;;;;;;;;;;;;;;1557596;28;84670;-87
2021/03/13 12:08:11;;;;;;;;;;;;;;;;;;1559685;28;86847;-87
2021/03/13 12:08:56;;;;;;;;;;;;;;;;;;1559985;28;85236;-88
2021/03/13 12:09:42;;;;;;;;;;;;;;;;;;1560503;28;85094;-86
2021/03/13 12:10:27;;;;;;;;;;;;;;;;;;1558044;28;86609;-86
2021/03/13 12:11:12;;;;;;;;;;;;;;;;;;1559368;28;85151;-87
2021/03/13 12:11:57;;;;;;;;;;;;;;;;;;1565864;28;85987;-88
2021/03/13 12:12:42;;;;;;;;;;;;;;;;;;1568768;27;84250;-88
2021/03/13 12:13:27;;;;;;;;;;;;;;;;;;1564198;28;83849;-87
2021/03/13 12:14:12;;;;;;;;;;;;;;;;;;1567809;28;84295;-87
2021/03/13 12:14:57;;;;;;;;;;;;;;;;;;1570897;27;86759;-87
2021/03/13 12:15:43;;;;;;;;;;;;;;;;;;1566393;27;84874;-87
2021/03/13 12:16:28;;;;;;;;;;;;;;;;;;1555957;28;86642;-88
2021/03/13 12:17:13;;;;;;;;;;;;;;;;;;1555333;28;83140;-87
2021/03/13 12:17:58;;;;;;;;;;;;;;;;;;1547758;28;83724;-89
2021/03/13 12:18:43;;;;;;;;;;;;;;;;;;1549723;28;83655;-88
2021/03/13 12:19:28;;;;;;;;;;;;;;;;;;1555046;28;83537;-88
2021/03/13 12:20:13;;;;;;;;;;;;;;;;;;1549451;28;83264;-88
2021/03/13 12:20:58;;;;;;;;;;;;;;;;;;1549350;28;83126;-89
2021/03/13 12:21:43;;;;;;;;;;;;;;;;;;1551408;28;83527;-88
2021/03/13 12:22:29;;;;;;;;;;;;;;;;;;1551387;28;83557;-87
2021/03/13 12:23:14;;;;;;;;;;;;;;;;;;1555402;28;83158;-87
2021/03/13 12:23:59;;;;;;;;;;;;;;;;;;1555754;28;83399;-88
2021/03/13 12:24:44;;;;;;;;;;;;;;;;;;1552181;28;83198;-88
2021/03/13 12:25:29;;;;;;;;;;;;;;;;;;1550411;28;83544;-87
2021/03/13 12:26:14;;;;;;;;;;;;;;;;;;1555876;28;83362;-87
2021/03/13 12:26:59;;;;;;;;;;;;;;;;;;1562180;28;83180;-89
2021/03/13 12:27:44;;;;;;;;;;;;;;;;;;1556169;28;83500;-87
2021/03/13 12:28:30;;;;;;;;;;;;;;;;;;1549805;28;83513;-89
2021/03/13 12:29:15;;;;;;;;;;;;;;;;;;1554261;28;83120;-89
2021/03/13 12:30:00;;;;;;;;;;;;;;;;;;1553749;28;83240;-86
2021/03/13 12:30:45;;;;;;;;;;;;;;;;;;1549886;28;83336;-88
2021/03/13 12:31:30;;;;;;;;;;;;;;;;;;1551534;28;83489;-88
2021/03/13 12:32:15;;;;;;;;;;;;;;;;;;1556727;28;83311;-89
2021/03/13 12:33:00;;;;;;;;;;;;;;;;;;1558072;28;82995;-90
2021/03/13 12:33:46;;;;;;;;;;;;;;;;;;1551199;28;83513;-89
2021/03/13 12:34:31;;;;;;;;;;;;;;;;;;1550120;28;83216;-89
2021/03/13 12:35:16;;;;;;;;;;;;;;;;;;1549721;28;83566;-89
2021/03/13 12:36:01;;;;;;;;;;;;;;;;;;1553160;28;83513;-89
2021/03/13 12:36:46;;;;;;;;;;;;;;;;;;1556932;28;83320;-88
2021/03/13 12:37:31;;;;;;;;;;;;;;;;;;1552716;28;83491;-90
2021/03/13 12:38:17;;;;;;;;;;;;;;;;;;1554102;28;83551;-89
2021/03/13 12:39:02;;;;;;;;;;;;;;;;;;1557371;28;86139;-89
2021/03/13 12:39:47;;;;;;;;;;;;;;;;;;1553581;28;84756;-89
2021/03/13 12:40:32;;;;;;;;;;;;;;;;;;1553606;28;85708;-89
2021/03/13 12:41:17;;;;;;;;;;;;;;;;;;1545161;28;83515;-89
2021/03/13 12:42:02;;;;;;;;;;;;;;;;;;1549212;28;84510;-89
2021/03/13 12:42:48;;;;;;;;;;;;;;;;;;1545117;28;86213;-89
2021/03/13 12:43:33;;;;;;;;;;;;;;;;;;1547081;28;85693;-89
2021/03/13 12:44:18;;;;;;;;;;;;;;;;;;1551487;28;86062;-89
2021/03/13 12:45:03;;;;;;;;;;;;;;;;;;1548714;28;84444;-88
2021/03/13 12:45:48;;;;;;;;;;;;;;;;;;1542813;28;85166;-89
2021/03/13 12:46:33;;;;;;;;;;;;;;;;;;1547087;28;84503;-88
2021/03/13 12:47:19;;;;;;;;;;;;;;;;;;1545212;28;84456;-89
2021/03/13 12:48:04;;;;;;;;;;;;;;;;;;1547404;28;83907;-88
2021/03/13 12:48:49;;;;;;;;;;;;;;;;;;1553299;28;86404;-88
2021/03/13 12:49:34;;;;;;;;;;;;;;;;;;1555762;28;83747;-88
2021/03/13 12:50:19;;;;;;;;;;;;;;;;;;1551448;28;84694;-89
2021/03/13 12:51:04;;;;;;;;;;;;;;;;;;1545352;28;84784;-87
2021/03/13 12:51:49;;;;;;;;;;;;;;;;;;1543112;28;84308;-87
2021/03/13 12:52:35;;;;;;;;;;;;;;;;;;1546951;28;84947;-87
2021/03/13 12:53:20;;;;;;;;;;;;;;;;;;1545956;28;85067;-88
2021/03/13 12:54:05;;;;;;;;;;;;;;;;;;1543173;28;84704;-89
2021/03/13 12:54:51;;;;;;;;;;;;;;;;;;1548380;28;85174;-88
2021/03/13 12:55:36;;;;;;;;;;;;;;;;;;1548902;28;84021;-89
2021/03/13 12:56:21;;;;;;;;;;;;;;;;;;1548871;28;86085;-88
2021/03/13 12:57:06;;;;;;;;;;;;;;;;;;1553225;28;84626;-89
2021/03/13 12:57:53;;;;;;;;;;;;;;;;;;1549211;28;84725;-89
2021/03/13 12:58:38;;;;;;;;;;;;;;;;;;1547586;28;85893;-88
2021/03/13 12:59:24;;;;;;;;;;;;;;;;;;1554536;28;86235;-88
2021/03/13 13:00:09;;;;;;;;;;;;;;;;;;1548953;28;85182;-88
2021/03/13 13:00:54;;;;;;;;;;;;;;;;;;1549278;28;84851;-88
2021/03/13 13:01:39;;;;;;;;;;;;;;;;;;1549172;28;85251;-88
2021/03/13 13:02:24;;;;;;;;;;;;;;;;;;1547221;28;84474;-88
2021/03/13 13:03:09;;;;;;;;;;;;;;;;;;1549254;28;85322;-88
2021/03/13 13:03:54;;;;;;;;;;;;;;;;;;1549377;28;86233;-89
2021/03/13 13:04:40;;;;;;;;;;;;;;;;;;1547330;28;85079;-88
2021/03/13 13:05:25;;;;;;;;;;;;;;;;;;1549427;28;85873;-88
2021/03/13 13:06:10;;;;;;;;;;;;;;;;;;1549078;28;85136;-87
2021/03/13 13:06:55;;;;;;;;;;;;;;;;;;1547648;28;86558;-88
2021/03/13 13:07:45;;;;;;;;;;;;;;;;;;1549183;28;85687;-87
2021/03/13 13:08:31;;;;;;;;;;;;;;;;;;1549125;28;85123;-88
2021/03/13 13:09:16;;;;;;;;;;;;;;;;;;1546461;28;86577;-87
2021/03/13 13:10:01;;;;;;;;;;;;;;;;;;1549188;28;85412;-87
2021/03/13 13:10:46;;;;;;;;;;;;;;;;;;1549175;28;85939;-87
2021/03/13 13:11:31;;;;;;;;;;;;;;;;;;1546722;28;85531;-88
2021/03/13 13:12:17;;;;;;;;;;;;;;;;;;1548788;28;86822;-88
2021/03/13 13:13:02;;;;;;;;;;;;;;;;;;1549163;28;84904;-87
2021/03/13 13:13:47;;;;;;;;;;;;;;;;;;1547052;28;85308;-88
2021/03/13 13:14:32;;;;;;;;;;;;;;;;;;1549623;28;84053;-87
2021/03/13 13:15:17;;;;;;;;;;;;;;;;;;1550360;28;86819;-87
2021/03/13 13:16:02;;;;;;;;;;;;;;;;;;1545001;28;85626;-87
2021/03/13 13:16:47;;;;;;;;;;;;;;;;;;1546930;28;84418;-88
2021/03/13 13:17:32;;;;;;;;;;;;;;;;;;1546838;28;85093;-87
2021/03/13 13:18:18;;;;;;;;;;;;;;;;;;1544588;28;86799;-84
2021/03/13 13:19:03;;;;;;;;;;;;;;;;;;1540525;28;86581;-87
2021/03/13 13:19:48;;;;;;;;;;;;;;;;;;1544937;28;84136;-89
2021/03/13 13:20:33;;;;;;;;;;;;;;;;;;1546962;28;86744;-89
2021/03/13 13:21:18;;;;;;;;;;;;;;;;;;1548696;28;85568;-89
2021/03/13 13:22:03;;;;;;;;;;;;;;;;;;1549968;28;83739;-92
2021/03/13 13:22:48;;;;;;;;;;;;;;;;;;1550565;28;83396;-88
2021/03/13 13:23:34;;;;;;;;;;;;;;;;;;1551330;28;85273;-89
2021/03/13 13:24:19;;;;;;;;;;;;;;;;;;1550933;28;83583;-88
2021/03/13 13:25:04;;;;;;;;;;;;;;;;;;1550930;28;83376;-88
2021/03/13 13:25:49;;;;;;;;;;;;;;;;;;1550714;28;83543;-89
2021/03/13 13:26:34;;;;;;;;;;;;;;;;;;1553102;28;83309;-89
2021/03/13 13:27:19;;;;;;;;;;;;;;;;;;1548978;28;84364;-89
2021/03/13 13:28:04;;;;;;;;;;;;;;;;;;1551026;28;83512;-88
2021/03/13 13:28:49;;;;;;;;;;;;;;;;;;1553033;28;82901;-88
2021/03/13 13:29:35;;;;;;;;;;;;;;;;;;1549196;28;84308;-89
2021/03/13 13:30:20;;;;;;;;;;;;;;;;;;1546775;28;84625;-87
2021/03/13 13:31:05;;;;;;;;;;;;;;;;;;1546485;28;84208;-88
2021/03/13 13:31:50;;;;;;;;;;;;;;;;;;1548567;28;83681;-88
2021/03/13 13:32:35;;;;;;;;;;;;;;;;;;1542812;28;84291;-87
2021/03/13 13:33:20;;;;;;;;;;;;;;;;;;1542622;28;83533;-87
2021/03/13 13:34:05;;;;;;;;;;;;;;;;;;1545376;28;83843;-88
2021/03/13 13:34:50;;;;;;;;;;;;;;;;;;1543574;28;83222;-87
2021/03/13 13:35:36;;;;;;;;;;;;;;;;;;1537881;28;84820;-88
2021/03/13 13:36:22;;;;;;;;;;;;;;;;;;1539555;28;83500;-88
2021/03/13 13:37:07;;;;;;;;;;;;;;;;;;1538632;28;83550;-89
2021/03/13 13:37:52;;;;;;;;;;;;;;;;;;1540697;28;84834;-88
2021/03/13 13:38:37;;;;;;;;;;;;;;;;;;1538780;28;84436;-88
2021/03/13 13:39:23;;;;;;;;;;;;;;;;;;1538814;28;83300;-87
2021/03/13 13:40:08;;;;;;;;;;;;;;;;;;1542347;28;84678;-87
2021/03/13 13:40:54;;;;;;;;;;;;;;;;;;1544827;28;83176;-88
2021/03/13 13:41:39;;;;;;;;;;;;;;;;;;1546894;28;83427;-88
2021/03/13 13:42:24;;;;;;;;;;;;;;;;;;1549663;28;84336;-88
2021/03/13 13:43:09;;;;;;;;;;;;;;;;;;1550948;28;84915;-87
2021/03/13 13:43:55;;;;;;;;;;;;;;;;;;1544774;28;86003;-87
2021/03/13 13:44:40;;;;;;;;;;;;;;;;;;1541896;28;85645;-87
2021/03/13 13:45:25;;;;;;;;;;;;;;;;;;1538338;28;85824;-88
2021/03/13 13:46:10;;;;;;;;;;;;;;;;;;1542765;28;84543;-89
2021/03/13 13:46:55;;;;;;;;;;;;;;;;;;1542720;28;85217;-88
2021/03/13 13:47:40;;;;;;;;;;;;;;;;;;1544601;28;83382;-89
2021/03/13 13:48:26;;;;;;;;;;;;;;;;;;1542699;28;83972;-90
2021/03/13 13:49:12;;;;;;;;;;;;;;;;;;1542788;28;85229;-89
2021/03/13 13:49:57;;;;;;;;;;;;;;;;;;1540392;28;84057;-91
2021/03/13 13:50:43;;;;;;;;;;;;;;;;;;1539725;28;85103;-89
2021/03/13 13:51:28;;;;;;;;;;;;;;;;;;1541093;28;86724;-88
2021/03/13 13:52:13;;;;;;;;;;;;;;;;;;1539362;28;84775;-89
2021/03/13 13:52:59;;;;;;;;;;;;;;;;;;1537573;28;86617;-88
2021/03/13 13:53:44;;;;;;;;;;;;;;;;;;1540651;28;84754;-88
2021/03/13 13:54:29;;;;;;;;;;;;;;;;;;1542824;28;85138;-87
2021/03/13 13:55:14;;;;;;;;;;;;;;;;;;1544528;28;85314;-88
2021/03/13 13:55:59;;;;;;;;;;;;;;;;;;1544750;28;84978;-88
2021/03/13 13:56:44;;;;;;;;;;;;;;;;;;1546428;28;83509;-88
2021/03/13 13:57:31;;;;;;;;;;;;;;;;;;1543944;28;86118;-89
2021/03/13 13:58:17;;;;;;;;;;;;;;;;;;1544836;28;85218;-88
2021/03/13 13:59:04;;;;;;;;;;;;;;;;;;1546940;28;84545;-87
2021/03/13 13:59:50;;;;;;;;;;;;;;;;;;1549874;28;86448;-88
2021/03/13 14:00:35;;;;;;;;;;;;;;;;;;1542377;28;84792;-88
2021/03/13 14:01:20;;;;;;;;;;;;;;;;;;1538512;28;85997;-87
2021/03/13 14:02:05;;;;;;;;;;;;;;;;;;1546819;28;83507;-87
2021/03/13 14:02:50;;;;;;;;;;;;;;;;;;1546529;28;83529;-87
2021/03/13 14:03:35;;;;;;;;;;;;;;;;;;1548984;28;84592;-88
2021/03/13 14:04:20;;;;;;;;;;;;;;;;;;1553495;28;84883;-88
2021/03/13 14:05:05;;;;;;;;;;;;;;;;;;1552744;28;85164;-88
2021/03/13 14:05:51;;;;;;;;;;;;;;;;;;1549085;28;84495;-89
2021/03/13 14:06:36;;;;;;;;;;;;;;;;;;1550907;28;84107;-90
2021/03/13 14:07:21;;;;;;;;;;;;;;;;;;1546419;28;86451;-88
2021/03/13 14:08:06;;;;;;;;;;;;;;;;;;1541749;28;84050;-89
2021/03/13 14:08:51;;;;;;;;;;;;;;;;;;1545320;28;85367;-88
2021/03/13 14:09:36;;;;;;;;;;;;;;;;;;1544653;28;86801;-89
2021/03/13 14:10:21;;;;;;;;;;;;;;;;;;1542803;28;84962;-88
2021/03/13 14:11:06;;;;;;;;;;;;;;;;;;1544641;28;85601;-89
2021/03/13 14:11:52;;;;;;;;;;;;;;;;;;1540517;28;86571;-88
2021/03/13 14:12:37;;;;;;;;;;;;;;;;;;1546677;28;85379;-89
2021/03/13 14:13:22;;;;;;;;;;;;;;;;;;1544864;28;86885;-89
2021/03/13 14:14:07;;;;;;;;;;;;;;;;;;1547005;28;84689;-89
2021/03/13 14:14:52;;;;;;;;;;;;;;;;;;1550745;28;84008;-90
2021/03/13 14:15:37;;;;;;;;;;;;;;;;;;1546787;28;85647;-89
2021/03/13 14:16:22;;;;;;;;;;;;;;;;;;1544560;28;85118;-88
2021/03/13 14:17:07;;;;;;;;;;;;;;;;;;1547016;28;85313;-89
2021/03/13 14:17:53;;;;;;;;;;;;;;;;;;1551014;28;85150;-89
2021/03/13 14:18:38;;;;;;;;;;;;;;;;;;1547099;28;83897;-89
2021/03/13 14:19:23;;;;;;;;;;;;;;;;;;1544721;28;83986;-88
2021/03/13 14:20:08;;;;;;;;;;;;;;;;;;1546769;28;85250;-88
2021/03/13 14:20:53;;;;;;;;;;;;;;;;;;1550797;28;84291;-89
2021/03/13 14:21:38;;;;;;;;;;;;;;;;;;1546506;28;85066;-89
2021/03/13 14:22:23;;;;;;;;;;;;;;;;;;1544770;28;86801;-89
2021/03/13 14:23:09;;;;;;;;;;;;;;;;;;1546714;28;85358;-90
2021/03/13 14:23:54;;;;;;;;;;;;;;;;;;1550168;28;85080;-90
2021/03/13 14:24:39;;;;;;;;;;;;;;;;;;1540849;28;85331;-89
2021/03/13 14:25:24;;;;;;;;;;;;;;;;;;1544740;28;86847;-89
2021/03/13 14:26:09;;;;;;;;;;;;;;;;;;1540553;28;83753;-89
2021/03/13 14:26:54;;;;;;;;;;;;;;;;;;1538603;28;83434;-89
2021/03/13 14:27:40;;;;;;;;;;;;;;;;;;1541816;28;84557;-89
2021/03/13 14:28:25;;;;;;;;;;;;;;;;;;1540703;28;83575;-88
2021/03/13 14:29:10;;;;;;;;;;;;;;;;;;1540696;28;83519;-89
2021/03/13 14:29:55;;;;;;;;;;;;;;;;;;1546707;28;83548;-89
2021/03/13 14:30:40;;;;;;;;;;;;;;;;;;1552920;28;83690;-88
2021/03/13 14:31:25;;;;;;;;;;;;;;;;;;1548761;28;86013;-89
2021/03/13 14:32:10;;;;;;;;;;;;;;;;;;1548692;28;83538;-89
2021/03/13 14:32:56;;;;;;;;;;;;;;;;;;1547899;28;83436;-90
2021/03/13 14:33:41;;;;;;;;;;;;;;;;;;1547922;28;83261;-90
2021/03/13 14:34:26;;;;;;;;;;;;;;;;;;1548833;28;82918;-90
2021/03/13 14:35:11;;;;;;;;;;;;;;;;;;1551121;28;83534;-90
2021/03/13 14:36:00;;;;;;;;;;;;;;;;;;1556508;28;83580;-90
2021/03/13 14:36:46;;;;;;;;;;;;;;;;;;1554318;28;84121;-89
2021/03/13 14:37:31;;;;;;;;;;;;;;;;;;1548073;28;83589;-89
2021/03/13 14:38:16;;;;;;;;;;;;;;;;;;1550107;28;84812;-88
2021/03/13 14:39:01;;;;;;;;;;;;;;;;;;1548052;28;84499;-88
2021/03/13 14:39:47;;;;;;;;;;;;;;;;;;1543723;28;84653;-88
2021/03/13 14:40:32;;;;;;;;;;;;;;;;;;1543594;28;83610;-89
2021/03/13 14:41:17;;;;;;;;;;;;;;;;;;1548201;28;84559;-88
2021/03/13 14:42:02;;;;;;;;;;;;;;;;;;1546639;28;83722;-90
2021/03/13 14:42:47;;;;;;;;;;;;;;;;;;1548817;28;82617;-89
2021/03/13 14:43:32;;;;;;;;;;;;;;;;;;1548469;28;84382;-90
2021/03/13 14:44:17;;;;;;;;;;;;;;;;;;1554969;28;84379;-89
2021/03/13 14:45:03;;;;;;;;;;;;;;;;;;1553348;28;84737;-89
2021/03/13 14:45:48;;;;;;;;;;;;;;;;;;1557965;28;82783;-89
2021/03/13 14:46:33;;;;;;;;;;;;;;;;;;1558119;28;83100;-89
2021/03/13 14:47:19;;;;;;;;;;;;;;;;;;1556516;28;83577;-88
2021/03/13 14:48:04;;;;;;;;;;;;;;;;;;1549733;28;84687;-90
2021/03/13 14:48:49;;;;;;;;;;;;;;;;;;1554952;28;85091;-89
2021/03/13 14:49:34;;;;;;;;;;;;;;;;;;1549950;28;83458;-89
2021/03/13 14:50:19;;;;;;;;;;;;;;;;;;1555839;28;83923;-87
2021/03/13 14:51:04;;;;;;;;;;;;;;;;;;1556963;28;85111;-88
2021/03/13 14:51:49;;;;;;;;;;;;;;;;;;1557179;28;83325;-86
2021/03/13 14:52:35;;;;;;;;;;;;;;;;;;1553348;28;86188;-87
2021/03/13 14:53:20;;;;;;;;;;;;;;;;;;1557013;28;84778;-87
2021/03/13 14:54:05;;;;;;;;;;;;;;;;;;1549497;28;83682;-89
2021/03/13 14:54:50;;;;;;;;;;;;;;;;;;1552913;28;85155;-88
2021/03/13 14:55:35;;;;;;;;;;;;;;;;;;1552851;28;84591;-89
2021/03/13 14:56:20;;;;;;;;;;;;;;;;;;1552893;28;85374;-88
2021/03/13 14:57:05;;;;;;;;;;;;;;;;;;1557234;28;83409;-88
2021/03/13 14:57:50;;;;;;;;;;;;;;;;;;1553570;28;85061;-86
2021/03/13 14:58:35;;;;;;;;;;;;;;;;;;1551301;28;83870;-87
2021/03/13 14:59:21;;;;;;;;;;;;;;;;;;1552145;28;83772;-89
2021/03/13 15:00:06;;;;;;;;;;;;;;;;;;1552835;28;84530;-89
2021/03/13 15:00:51;;;;;;;;;;;;;;;;;;1548723;28;85161;-89
2021/03/13 15:01:36;;;;;;;;;;;;;;;;;;1550467;28;84024;-89
2021/03/13 15:02:21;;;;;;;;;;;;;;;;;;1552635;28;86328;-89
2021/03/13 15:03:06;;;;;;;;;;;;;;;;;;1548886;28;84728;-89
2021/03/13 15:03:51;;;;;;;;;;;;;;;;;;1550610;28;85059;-89
2021/03/13 15:04:36;;;;;;;;;;;;;;;;;;1551958;28;84686;-90
2021/03/13 15:05:22;;;;;;;;;;;;;;;;;;1546739;28;84601;-90
2021/03/13 15:06:07;;;;;;;;;;;;;;;;;;1548783;28;84799;-90
2021/03/13 15:06:52;;;;;;;;;;;;;;;;;;1550495;28;83758;-91
2021/03/13 15:07:37;;;;;;;;;;;;;;;;;;1547900;28;83812;-89
2021/03/13 15:08:22;;;;;;;;;;;;;;;;;;1552548;28;86253;-91
2021/03/13 15:09:08;;;;;;;;;;;;;;;;;;1550940;28;85767;-90
2021/03/13 15:09:54;;;;;;;;;;;;;;;;;;1548996;28;86573;-90
2021/03/13 15:10:39;;;;;;;;;;;;;;;;;;1549197;28;85293;-90
2021/03/13 15:11:25;;;;;;;;;;;;;;;;;;1551536;28;86294;-90
2021/03/13 15:12:10;;;;;;;;;;;;;;;;;;1549051;28;85183;-90
2021/03/13 15:12:56;;;;;;;;;;;;;;;;;;1548428;28;85100;-89
2021/03/13 15:13:41;;;;;;;;;;;;;;;;;;1551013;28;85085;-89
2021/03/13 15:14:26;;;;;;;;;;;;;;;;;;1555018;28;85424;-90
2021/03/13 15:15:11;;;;;;;;;;;;;;;;;;1554464;28;82992;-88
2021/03/13 15:15:56;;;;;;;;;;;;;;;;;;1554983;28;84193;-89
2021/03/13 15:16:41;;;;;;;;;;;;;;;;;;1554986;28;84556;-90
2021/03/13 15:17:27;;;;;;;;;;;;;;;;;;1555226;28;84016;-91
2021/03/13 15:18:12;;;;;;;;;;;;;;;;;;1553160;28;84237;-90
2021/03/13 15:18:57;;;;;;;;;;;;;;;;;;1550383;28;84015;-91
2021/03/13 15:19:42;;;;;;;;;;;;;;;;;;1555718;28;85183;-90
2021/03/13 15:20:27;;;;;;;;;;;;;;;;;;1555158;28;85234;-91
2021/03/13 15:21:12;;;;;;;;;;;;;;;;;;1547037;28;84120;-90
2021/03/13 15:21:57;;;;;;;;;;;;;;;;;;1548749;28;84226;-90
2021/03/13 15:22:43;;;;;;;;;;;;;;;;;;1550716;28;85702;-90
2021/03/13 15:23:28;;;;;;;;;;;;;;;;;;1549264;28;85503;-91
2021/03/13 15:24:13;;;;;;;;;;;;;;;;;;1554758;28;86364;-90
2021/03/13 15:24:58;;;;;;;;;;;;;;;;;;1557051;28;85416;-89
2021/03/13 15:25:43;;;;;;;;;;;;;;;;;;1552981;28;85655;-90
2021/03/13 15:26:28;;;;;;;;;;;;;;;;;;1543113;28;85573;-90
2021/03/13 15:27:13;;;;;;;;;;;;;;;;;;1538764;28;85265;-90
2021/03/13 15:27:59;;;;;;;;;;;;;;;;;;1539837;28;86308;-90
2021/03/13 15:28:44;;;;;;;;;;;;;;;;;;1540986;28;85138;-89
2021/03/13 15:29:29;;;;;;;;;;;;;;;;;;1540233;28;85689;-92
2021/03/13 15:30:14;;;;;;;;;;;;;;;;;;1548920;28;83510;-90
2021/03/13 15:30:59;;;;;;;;;;;;;;;;;;1550294;28;83530;-90
2021/03/13 15:31:44;;;;;;;;;;;;;;;;;;1550309;28;84056;-89
2021/03/13 15:32:29;;;;;;;;;;;;;;;;;;1550383;28;84269;-91
2021/03/13 15:33:15;;;;;;;;;;;;;;;;;;1550478;28;83317;-89
2021/03/13 15:34:00;;;;;;;;;;;;;;;;;;1545928;28;83590;-91
2021/03/13 15:34:45;;;;;;;;;;;;;;;;;;1544318;28;83648;-90
2021/03/13 15:35:30;;;;;;;;;;;;;;;;;;1544470;28;83672;-89
2021/03/13 15:36:15;;;;;;;;;;;;;;;;;;1555154;28;84387;-89
2021/03/13 15:37:00;;;;;;;;;;;;;;;;;;1547467;28;83709;-88
2021/03/13 15:37:45;;;;;;;;;;;;;;;;;;1548998;28;84440;-89
2021/03/13 15:38:32;;;;;;;;;;;;;;;;;;1543558;28;85799;-89
2021/03/13 15:39:17;;;;;;;;;;;;;;;;;;1539111;28;84333;-90
2021/03/13 15:40:02;;;;;;;;;;;;;;;;;;1542934;28;86817;-90
2021/03/13 15:40:47;;;;;;;;;;;;;;;;;;1539111;28;83967;-90
2021/03/13 15:41:33;;;;;;;;;;;;;;;;;;1543924;28;84386;-90
2021/03/13 15:42:18;;;;;;;;;;;;;;;;;;1546154;28;84652;-90
2021/03/13 15:43:06;;;;;;;;;;;;;;;;;;1551249;28;86533;-89
2021/03/13 15:43:52;;;;;;;;;;;;;;;;;;1541798;28;84456;-89
2021/03/13 15:44:37;;;;;;;;;;;;;;;;;;1542943;28;85430;-89
2021/03/13 15:45:22;;;;;;;;;;;;;;;;;;1545038;28;84528;-91
2021/03/13 15:46:09;;;;;;;;;;;;;;;;;;1549187;28;85849;-90
2021/03/13 15:46:54;;;;;;;;;;;;;;;;;;1541930;28;84318;-90
2021/03/13 15:47:40;;;;;;;;;;;;;;;;;;1541927;28;83313;-90
2021/03/13 15:48:25;;;;;;;;;;;;;;;;;;1547749;28;85397;-90
2021/03/13 15:49:10;;;;;;;;;;;;;;;;;;1553538;28;85126;-90
2021/03/13 15:49:55;;;;;;;;;;;;;;;;;;1543263;28;84479;-90
2021/03/13 15:50:40;;;;;;;;;;;;;;;;;;1537302;28;87478;-90
2021/03/13 15:51:25;;;;;;;;;;;;;;;;;;1547848;28;84006;-90
2021/03/13 15:52:12;;;;;;;;;;;;;;;;;;1545524;28;85143;-87
2021/03/13 15:52:57;;;;;;;;;;;;;;;;;;1541257;28;86076;-87
2021/03/13 15:53:42;;;;;;;;;;;;;;;;;;1537855;28;84679;-87
2021/03/13 15:54:27;;;;;;;;;;;;;;;;;;1544951;28;85942;-90
2021/03/13 15:55:12;;;;;;;;;;;;;;;;;;1550385;28;84621;-89
2021/03/13 15:55:57;;;;;;;;;;;;;;;;;;1555244;28;84846;-88
2021/03/13 15:56:42;;;;;;;;;;;;;;;;;;1554309;28;85629;-89
2021/03/13 15:57:27;;;;;;;;;;;;;;;;;;1554193;28;84577;-89
2021/03/13 15:58:13;;;;;;;;;;;;;;;;;;1543013;28;84739;-89
2021/03/13 15:58:59;;;;;;;;;;;;;;;;;;1543120;28;85086;-91
2021/03/13 15:59:44;;;;;;;;;;;;;;;;;;1538861;28;85914;-90
2021/03/13 16:00:29;;;;;;;;;;;;;;;;;;1539029;28;85689;-90
2021/03/13 16:01:14;;;;;;;;;;;;;;;;;;1545516;28;83868;-88
2021/03/13 16:01:59;;;;;;;;;;;;;;;;;;1540732;28;84691;-91
2021/03/13 16:02:44;;;;;;;;;;;;;;;;;;1545410;28;86014;-88
2021/03/13 16:03:32;;;;;;;;;;;;;;;;;;1545117;28;84767;-89
2021/03/13 16:04:17;;;;;;;;;;;;;;;;;;1549726;28;86092;-92
2021/03/13 16:05:02;;;;;;;;;;;;;;;;;;1543839;28;84911;-88
2021/03/13 16:05:47;;;;;;;;;;;;;;;;;;1545442;28;84723;-89
2021/03/13 16:06:32;;;;;;;;;;;;;;;;;;1549700;28;86101;-89
2021/03/13 16:07:17;;;;;;;;;;;;;;;;;;1545510;28;84888;-88
2021/03/13 16:08:02;;;;;;;;;;;;;;;;;;1546856;28;83405;-88
2021/03/13 16:08:48;;;;;;;;;;;;;;;;;;1549554;28;85155;-89
2021/03/13 16:09:33;;;;;;;;;;;;;;;;;;1543000;28;85156;-90
2021/03/13 16:10:18;;;;;;;;;;;;;;;;;;1541744;28;84661;-89
2021/03/13 16:11:05;;;;;;;;;;;;;;;;;;1541034;28;86351;-91
2021/03/13 16:11:50;;;;;;;;;;;;;;;;;;1535988;28;91650;-88
2021/03/13 16:12:35;;;;;;;;;;;;;;;;;;1523641;28;92932;-89
2021/03/13 16:13:21;;;;;;;;;;;;;;;;;;1529243;28;92637;-88
2021/03/13 16:14:06;;;;;;;;;;;;;;;;;;1536034;28;96853;-88
2021/03/13 16:14:51;;;;;;;;;;;;;;;;;;1534909;28;90407;-90
2021/03/13 16:15:36;;;;;;;;;;;;;;;;;;1538814;28;87744;-90
2021/03/13 16:16:21;;;;;;;;;;;;;;;;;;1545395;28;92540;-90
2021/03/13 16:17:06;;;;;;;;;;;;;;;;;;1544188;28;89806;-90
2021/03/13 16:17:51;;;;;;;;;;;;;;;;;;1541795;28;87061;-89
2021/03/13 16:18:36;;;;;;;;;;;;;;;;;;1544878;28;89026;-88
2021/03/13 16:19:21;;;;;;;;;;;;;;;;;;1545151;28;89673;-90
2021/03/13 16:20:07;;;;;;;;;;;;;;;;;;1547445;28;88850;-90
2021/03/13 16:20:52;;;;;;;;;;;;;;;;;;1540797;28;88712;-89
2021/03/13 16:21:37;;;;;;;;;;;;;;;;;;1545337;28;88447;-89
2021/03/13 16:22:22;;;;;;;;;;;;;;;;;;1541287;28;85407;-89
2021/03/13 16:23:07;;;;;;;;;;;;;;;;;;1533630;28;89705;-90
2021/03/13 16:23:52;;;;;;;;;;;;;;;;;;1530045;28;89539;-89
2021/03/13 16:24:37;;;;;;;;;;;;;;;;;;1534776;28;86835;-90
2021/03/13 16:25:23;;;;;;;;;;;;;;;;;;1537798;28;86158;-89
2021/03/13 16:26:08;;;;;;;;;;;;;;;;;;1533588;28;87128;-90
2021/03/13 16:26:53;;;;;;;;;;;;;;;;;;1533024;28;88794;-90
2021/03/13 16:27:41;;;;;;;;;;;;;;;;;;1533650;28;88476;-89
2021/03/13 16:28:26;;;;;;;;;;;;;;;;;;1538924;28;87572;-90
2021/03/13 16:29:12;;;;;;;;;;;;;;;;;;1535843;28;85508;-89
2021/03/13 16:29:57;;;;;;;;;;;;;;;;;;1540923;28;86865;-91
2021/03/13 16:30:42;;;;;;;;;;;;;;;;;;1536029;28;87987;-91
2021/03/13 16:31:28;;;;;;;;;;;;;;;;;;1536768;28;87587;-90
2021/03/13 16:32:13;;;;;;;;;;;;;;;;;;1537827;28;84208;-89
2021/03/13 16:32:58;;;;;;;;;;;;;;;;;;1535941;28;86851;-91
2021/03/13 16:33:44;;;;;;;;;;;;;;;;;;1532796;28;86910;-90
2021/03/13 16:34:31;;;;;;;;;;;;;;;;;;1538025;28;88332;-90
2021/03/13 16:35:16;;;;;;;;;;;;;;;;;;1536236;28;86489;-91
2021/03/13 16:36:01;;;;;;;;;;;;;;;;;;1533806;28;86888;-89
2021/03/13 16:36:46;;;;;;;;;;;;;;;;;;1535927;28;90622;-90
2021/03/13 16:37:32;;;;;;;;;;;;;;;;;;1536620;28;83931;-88
2021/03/13 16:38:17;;;;;;;;;;;;;;;;;;1537130;28;83597;-88
